Sanski Most, Bosnia and Herzegovina
Current Conditions -  °F | °C
As of 12:00 AM on Sunday 21 Dec 2014 (Local Time) from LQBK Reporting Station
Clear Clear  
Wind Chill: 38°   Ceiling: Unl
Heat Index: 41°   Visibility: 6mi
Dew Point: 37°   Wind: 5mph
Humidity: 87%   Direction: 330°NNW
Pressure: 30.06"   Gusts: NA
Location:  44.77°N, 16.67°E
Report Text: LQBK 202200Z 33004KT CAVOK 05/03 Q1018 NOSIG
Loading
Personal Weather Stations






























Interactive Weather Map New forecast layout! Learn more

10-Day Weather Forecast

Advertisements
Track Severe Weather on mobile